Tunnel City, Wisconsin
Current Conditions -  °F | °C
As of 11:35 AM on Saturday 25 Oct 2014 (Local Time) from KCMY Reporting Station
Clear Clear  
Wind Chill: 62°   Ceiling: Unl
Heat Index: 62°   Visibility: 10mi
Dew Point: 28°   Wind: 14mph
Humidity: 28%   Direction: 290°WNW
Pressure: 29.99"   Gusts: 23mph
Location:  44.01°N, 90.57°W
Report Text: KCMY 251635Z AUTO 29012G20KT 10SM CLR 17/M02 A2999 RMK AO2 T01661022
Loading
Personal Weather Stations






























Interactive Weather Map
Tropical Storm Tracking
New forecast layout! Learn more

10-Day Weather Forecast

Advertisements
Track Severe Weather on mobile